Time;durP1;ratioP1;P1;durP2;ratioP2;P2;SDS_P1;SDS_P2;PMS_P1;PMS_P2;Temp;Humidity;BMP_temperature;BMP_pressure;BME280_temperature;BME280_humidity;BME280_pressure;Samples;Min_cycle;Max_cycle;Signal;HPM_P1;HPM_P2
2021/03/06 00:00:10;;;;;;;18.23;9.98;;;2.20;95.60;;;;;;5071003;28;20017;-76
2021/03/06 00:02:36;;;;;;;17.77;8.73;;;2.20;95.60;;;;;;5072151;28;20021;-76
2021/03/06 00:05:03;;;;;;;13.75;7.47;;;2.20;95.60;;;;;;5072381;28;20031;-76
2021/03/06 00:07:29;;;;;;;9.82;5.97;;;2.20;95.70;;;;;;5072314;28;20383;-76
2021/03/06 00:09:55;;;;;;;10.57;6.55;;;2.20;95.80;;;;;;5072119;28;20022;-76
2021/03/06 00:12:21;;;;;;;20.85;12.63;;;2.20;95.90;;;;;;5071973;28;20559;-75
2021/03/06 00:14:46;;;;;;;12.77;7.22;;;2.20;95.80;;;;;;5070804;28;20028;-75
2021/03/06 00:17:12;;;;;;;16.92;10.23;;;2.20;95.30;;;;;;5072830;28;20107;-77
2021/03/06 00:19:38;;;;;;;17.98;9.80;;;2.10;95.40;;;;;;5072417;28;20031;-75
2021/03/06 00:22:04;;;;;;;12.55;7.30;;;2.10;95.60;;;;;;5072526;28;20025;-75
2021/03/06 00:24:30;;;;;;;23.60;10.32;;;2.10;95.70;;;;;;5072354;28;20459;-76
2021/03/06 00:26:56;;;;;;;21.60;10.25;;;2.10;95.80;;;;;;5070732;28;20109;-77
2021/03/06 00:29:22;;;;;;;18.27;8.52;;;2.20;95.90;;;;;;5072200;28;20127;-75
2021/03/06 00:31:48;;;;;;;19.30;9.02;;;2.20;96.00;;;;;;5072299;28;20047;-76
2021/03/06 00:34:14;;;;;;;17.50;8.75;;;2.20;96.10;;;;;;5072761;28;20095;-76
2021/03/06 00:36:40;;;;;;;15.57;8.05;;;2.20;96.10;;;;;;5073221;28;20100;-75
2021/03/06 00:39:06;;;;;;;18.30;9.60;;;2.30;96.20;;;;;;5072135;28;20356;-74
2021/03/06 00:41:32;;;;;;;12.65;7.13;;;2.30;96.20;;;;;;5070436;28;20031;-75
2021/03/06 00:43:59;;;;;;;12.73;6.78;;;2.30;96.20;;;;;;5071691;28;20016;-74
2021/03/06 00:46:25;;;;;;;23.55;11.05;;;2.30;96.10;;;;;;5071492;28;20021;-75
2021/03/06 00:48:51;;;;;;;28.83;14.68;;;2.30;96.10;;;;;;5071501;28;20020;-75
2021/03/06 00:51:17;;;;;;;9.43;5.47;;;2.30;96.00;;;;;;5072490;28;20470;-75
2021/03/06 00:53:43;;;;;;;10.40;5.75;;;2.30;95.80;;;;;;5075274;28;20355;-76
2021/03/06 00:56:09;;;;;;;13.52;6.55;;;2.20;95.70;;;;;;5075737;28;20126;-75
2021/03/06 00:58:34;;;;;;;10.93;5.93;;;2.20;95.70;;;;;;5075558;28;20024;-75
2021/03/06 01:01:00;;;;;;;11.63;5.88;;;2.20;95.90;;;;;;5075425;28;20028;-75
2021/03/06 01:03:26;;;;;;;10.38;5.60;;;2.20;96.00;;;;;;5075617;28;20067;-78
2021/03/06 01:05:52;;;;;;;10.02;6.05;;;2.20;96.10;;;;;;5075308;28;20552;-79
2021/03/06 01:08:18;;;;;;;12.50;7.30;;;2.20;96.20;;;;;;5076350;28;20020;-78
2021/03/06 01:10:45;;;;;;;11.98;6.22;;;2.30;96.20;;;;;;5075923;28;20021;-78
2021/03/06 01:13:11;;;;;;;13.38;8.00;;;2.30;96.30;;;;;;5075763;28;20032;-78
2021/03/06 01:15:37;;;;;;;16.52;9.75;;;2.30;96.20;;;;;;5076005;28;20020;-78
2021/03/06 01:18:04;;;;;;;13.65;7.63;;;2.30;96.10;;;;;;5074830;28;20362;-78
2021/03/06 01:20:31;;;;;;;19.60;10.27;;;2.30;96.10;;;;;;5075497;28;20024;-77
2021/03/06 01:22:57;;;;;;;45.42;18.98;;;2.40;96.20;;;;;;5074473;28;20028;-78
2021/03/06 01:25:23;;;;;;;20.05;10.18;;;2.40;96.20;;;;;;5075629;28;20086;-77
2021/03/06 01:27:49;;;;;;;17.10;9.48;;;2.40;96.10;;;;;;5075926;28;20032;-77
2021/03/06 01:30:16;;;;;;;14.68;7.53;;;2.40;96.10;;;;;;5074692;28;20032;-78
2021/03/06 01:32:42;;;;;;;10.63;7.15;;;2.40;96.10;;;;;;5075455;28;20055;-78
2021/03/06 01:35:10;;;;;;;10.18;6.80;;;2.40;96.10;;;;;;5076434;28;20497;-78
2021/03/06 01:37:37;;;;;;;17.23;10.27;;;2.40;96.10;;;;;;5076735;28;20095;-79
2021/03/06 01:40:11;;;;;;;13.13;7.88;;;2.40;96.20;;;;;;5076268;28;20081;-78
2021/03/06 01:42:37;;;;;;;8.63;5.60;;;2.40;96.20;;;;;;5076451;28;20056;-78
2021/03/06 01:45:05;;;;;;;9.50;5.07;;;2.40;96.20;;;;;;5076760;28;20086;-80
2021/03/06 01:47:31;;;;;;;9.27;4.72;;;2.40;96.10;;;;;;5077571;28;20028;-81
2021/03/06 01:49:57;;;;;;;7.70;4.47;;;2.40;96.10;;;;;;5076943;28;20516;-81
2021/03/06 01:52:23;;;;;;;9.13;5.20;;;2.40;96.20;;;;;;5076427;28;20103;-81
2021/03/06 01:54:50;;;;;;;13.77;8.30;;;2.40;96.10;;;;;;5075196;28;20101;-80
2021/03/06 01:57:16;;;;;;;19.88;10.85;;;2.40;96.40;;;;;;5076194;28;20024;-81
2021/03/06 01:59:42;;;;;;;21.17;10.68;;;2.40;96.10;;;;;;5074811;28;20024;-82
2021/03/06 02:02:07;;;;;;;19.65;9.57;;;2.30;96.10;;;;;;5075738;28;20467;-81
2021/03/06 02:04:34;;;;;;;18.02;8.98;;;2.30;96.10;;;;;;5074185;28;20495;-81
2021/03/06 02:07:02;;;;;;;15.18;7.80;;;2.30;96.10;;;;;;5075767;28;20028;-80
2021/03/06 02:09:28;;;;;;;10.90;6.63;;;2.30;96.20;;;;;;5074296;28;20489;-80
2021/03/06 02:12:23;;;;;;;15.07;7.22;;;2.30;96.20;;;;;;5075220;28;20098;-81
2021/03/06 02:14:57;;;;;;;16.15;8.55;;;2.30;96.50;;;;;;5075673;28;20017;-80
2021/03/06 02:17:56;;;;;;;24.77;12.15;;;2.30;96.30;;;;;;5075562;28;20056;-79
2021/03/06 02:20:37;;;;;;;23.45;11.13;;;2.20;96.30;;;;;;5075447;28;20024;-80
2021/03/06 02:23:27;;;;;;;17.88;9.40;;;2.20;96.30;;;;;;5075412;28;20493;-80
2021/03/06 02:25:53;;;;;;;18.15;9.43;;;2.20;96.40;;;;;;5074118;28;20021;-80
2021/03/06 02:28:24;;;;;;;22.02;10.38;;;2.20;96.40;;;;;;5075205;28;20374;-80
2021/03/06 02:30:52;;;;;;;22.13;11.35;;;2.20;96.40;;;;;;5075455;28;20059;-80
2021/03/06 02:33:20;;;;;;;21.33;10.50;;;2.10;96.40;;;;;;5075229;28;20184;-81
2021/03/06 02:35:51;;;;;;;16.50;9.82;;;2.10;96.50;;;;;;5073888;28;20016;-80
2021/03/06 02:38:18;;;;;;;18.88;9.77;;;2.10;96.50;;;;;;5074968;28;20027;-78
2021/03/06 02:40:45;;;;;;;15.60;9.00;;;2.10;96.60;;;;;;5074639;28;20028;-79
2021/03/06 02:43:11;;;;;;;24.50;9.55;;;2.10;96.60;;;;;;5073052;28;20029;-78
2021/03/06 02:45:38;;;;;;;14.43;8.75;;;2.00;96.60;;;;;;5073910;28;20066;-78
2021/03/06 02:48:06;;;;;;;18.05;9.98;;;2.00;96.60;;;;;;5072273;28;20550;-78
2021/03/06 02:50:32;;;;;;;25.35;11.60;;;2.00;96.60;;;;;;5073310;28;20028;-78
2021/03/06 02:52:57;;;;;;;37.53;18.55;;;2.00;96.60;;;;;;5073104;28;20085;-79
2021/03/06 02:55:23;;;;;;;33.03;16.58;;;2.00;96.60;;;;;;5073651;28;20099;-80
2021/03/06 02:58:14;;;;;;;23.58;13.38;;;2.00;96.60;;;;;;5074754;28;20031;-80
2021/03/06 03:00:51;;;;;;;19.17;10.95;;;1.90;96.60;;;;;;5074203;28;20029;-80
2021/03/06 03:03:18;;;;;;;17.50;9.73;;;1.90;96.70;;;;;;5073748;28;20041;-82
2021/03/06 03:06:03;;;;;;;15.90;8.93;;;1.90;96.70;;;;;;5073439;28;20044;-78
2021/03/06 03:08:36;;;;;;;11.95;7.80;;;1.90;96.70;;;;;;5073706;28;20028;-80
2021/03/06 03:11:03;;;;;;;;;;;1.90;96.80;;;;;;5073505;28;20439;-80
2021/03/06 03:13:40;;;;;;;14.18;7.72;;;1.90;96.90;;;;;;5074083;28;19951;-79
2021/03/06 03:16:22;;;;;;;14.88;8.10;;;1.90;97.00;;;;;;5074138;28;20021;-80
2021/03/06 03:18:58;;;;;;;14.68;6.90;;;1.90;97.20;;;;;;5077472;28;20434;-81
2021/03/06 03:21:27;;;;;;;15.25;8.32;;;1.90;97.10;;;;;;5074472;28;20020;-80
2021/03/06 03:24:00;;;;;;;17.42;8.32;;;1.90;97.10;;;;;;5074147;28;20047;-80
2021/03/06 03:26:27;;;;;;;;;;;1.80;97.00;;;;;;5074513;28;20509;-78
2021/03/06 03:28:54;;;;;;;10.93;6.82;;;1.80;97.10;;;;;;5074098;28;19983;-79
2021/03/06 03:31:22;;;;;;;9.20;5.68;;;1.80;97.10;;;;;;5073974;28;20085;-81
2021/03/06 03:33:48;;;;;;;8.93;5.38;;;1.80;97.10;;;;;;5073804;28;20028;-79
2021/03/06 03:36:15;;;;;;;10.48;5.90;;;1.70;97.00;;;;;;5073829;28;20116;-80
2021/03/06 03:38:45;;;;;;;11.38;6.93;;;1.70;96.90;;;;;;5073823;28;20467;-80
2021/03/06 03:41:11;;;;;;;12.77;7.40;;;1.70;96.90;;;;;;5072403;28;20024;-79
2021/03/06 03:43:40;;;;;;;10.25;6.57;;;1.70;96.80;;;;;;5073618;28;20024;-80
2021/03/06 03:46:06;;;;;;;13.45;7.10;;;1.70;96.80;;;;;;5072255;28;20044;-81
2021/03/06 03:48:34;;;;;;;12.02;7.32;;;1.60;96.60;;;;;;5073529;28;20032;-79
2021/03/06 03:51:02;;;;;;;12.30;7.22;;;1.60;96.60;;;;;;5073454;28;20028;-80
2021/03/06 03:53:28;;;;;;;13.18;7.43;;;1.60;96.50;;;;;;5071877;28;20065;-80
2021/03/06 03:55:55;;;;;;;9.57;5.95;;;1.50;96.50;;;;;;5072424;28;20021;-80
2021/03/06 03:58:21;;;;;;;8.55;5.05;;;1.50;96.50;;;;;;5072603;28;20063;-80
2021/03/06 04:00:47;;;;;;;10.18;5.55;;;1.40;96.60;;;;;;5072687;28;20029;-81
2021/03/06 04:03:16;;;;;;;9.40;5.90;;;1.40;96.60;;;;;;5071829;28;20056;-79
2021/03/06 04:05:41;;;;;;;9.70;6.10;;;1.40;96.50;;;;;;5074775;28;20032;-81
2021/03/06 04:08:07;;;;;;;8.95;5.93;;;1.40;96.50;;;;;;5075182;28;20031;-79
2021/03/06 04:10:33;;;;;;;11.88;5.78;;;1.40;96.50;;;;;;5071377;28;20429;-81
2021/03/06 04:12:59;;;;;;;9.20;5.03;;;1.40;96.40;;;;;;5069793;28;20071;-80
2021/03/06 04:15:25;;;;;;;7.82;5.18;;;1.40;96.50;;;;;;5070843;28;20020;-81
2021/03/06 04:17:51;;;;;;;9.43;5.85;;;1.40;96.40;;;;;;5070801;28;20021;-81
2021/03/06 04:20:22;;;;;;;12.30;5.80;;;1.30;96.30;;;;;;5071122;28;20421;-80
2021/03/06 04:22:48;;;;;;;10.05;5.43;;;1.30;96.10;;;;;;5068760;28;20027;-79
2021/03/06 04:25:14;;;;;;;13.73;7.35;;;1.20;96.00;;;;;;5069433;28;20680;-79
2021/03/06 04:27:40;;;;;;;8.43;5.90;;;1.20;96.30;;;;;;5074375;28;20024;-80
2021/03/06 04:30:08;;;;;;;10.20;6.07;;;1.20;96.00;;;;;;5072494;28;20111;-80
2021/03/06 04:32:34;;;;;;;12.10;7.43;;;1.10;95.90;;;;;;5074772;28;20458;-78
2021/03/06 04:34:59;;;;;;;12.23;6.53;;;1.10;96.00;;;;;;5075138;28;20028;-81
2021/03/06 04:37:25;;;;;;;14.15;8.27;;;1.10;95.90;;;;;;5074080;28;20020;-81
2021/03/06 04:39:51;;;;;;;12.25;7.03;;;1.00;96.00;;;;;;5074111;28;20032;-80
2021/03/06 04:42:17;;;;;;;10.20;6.47;;;1.00;96.10;;;;;;5075076;28;20147;-78
2021/03/06 04:44:43;;;;;;;9.50;6.20;;;1.00;96.00;;;;;;5074368;28;20052;-75
2021/03/06 04:47:08;;;;;;;11.88;7.35;;;1.00;96.10;;;;;;5074185;28;20028;-75
2021/03/06 04:49:34;;;;;;;13.93;6.72;;;1.00;96.00;;;;;;5074502;28;20022;-77
2021/03/06 04:52:00;;;;;;;13.05;7.28;;;1.00;96.00;;;;;;5074665;28;20028;-75
2021/03/06 04:54:26;;;;;;;9.50;6.78;;;1.00;96.00;;;;;;5075467;28;20834;-75
2021/03/06 04:56:52;;;;;;;14.48;7.28;;;1.00;96.10;;;;;;5074292;28;20107;-78
2021/03/06 04:59:18;;;;;;;10.90;6.97;;;1.00;96.30;;;;;;5075216;28;20027;-75
2021/03/06 05:01:44;;;;;;;15.27;7.50;;;1.10;96.60;;;;;;5075386;28;20027;-77
2021/03/06 05:04:10;;;;;;;15.07;7.18;;;1.10;96.90;;;;;;5074450;28;20079;-78
2021/03/06 05:06:35;;;;;;;15.40;8.10;;;1.20;96.80;;;;;;5073150;28;20027;-76
2021/03/06 05:09:01;;;;;;;15.75;7.35;;;1.30;96.70;;;;;;5074176;28;20044;-75
2021/03/06 05:11:27;;;;;;;20.38;10.23;;;1.40;96.70;;;;;;5073839;28;20447;-77
2021/03/06 05:13:52;;;;;;;20.48;8.07;;;1.40;96.70;;;;;;5075116;28;20039;-74
2021/03/06 05:16:18;;;;;;;41.90;17.92;;;1.50;96.90;;;;;;5074830;28;20100;-74
2021/03/06 05:18:44;;;;;;;26.02;12.85;;;1.70;97.10;;;;;;5074294;28;20043;-77
2021/03/06 05:21:10;;;;;;;16.30;11.30;;;1.80;97.30;;;;;;5074725;28;20028;-76
2021/03/06 05:23:35;;;;;;;12.95;7.95;;;2.00;97.40;;;;;;5074771;28;20422;-76
2021/03/06 05:26:01;;;;;;;11.88;6.93;;;2.20;97.60;;;;;;5074835;28;20024;-78
2021/03/06 05:28:27;;;;;;;13.05;8.85;;;2.40;97.50;;;;;;5074823;28;20055;-78
2021/03/06 05:30:53;;;;;;;12.55;7.80;;;2.60;97.80;;;;;;5075161;28;20060;-76
2021/03/06 05:33:19;;;;;;;14.82;9.32;;;3.00;98.80;;;;;;5073520;28;20043;-76
2021/03/06 05:35:45;;;;;;;13.95;9.27;;;3.50;99.70;;;;;;5073612;28;20149;-77
2021/03/06 05:38:12;;;;;;;26.00;11.73;;;4.00;99.90;;;;;;5074241;28;20100;-77
2021/03/06 05:40:44;;;;;;;26.48;15.32;;;4.80;99.90;;;;;;5073522;28;20082;-76
2021/03/06 05:43:10;;;;;;;19.50;12.35;;;5.70;99.90;;;;;;5074278;28;20036;-77
2021/03/06 05:45:36;;;;;;;10.70;7.25;;;6.90;99.90;;;;;;5075133;28;20028;-75
2021/03/06 05:48:03;;;;;;;10.40;6.28;;;7.70;99.90;;;;;;5074714;28;20118;-76
2021/03/06 05:50:30;;;;;;;9.52;7.13;;;8.40;99.90;;;;;;5074073;28;20529;-76
2021/03/06 05:52:56;;;;;;;7.43;5.50;;;8.80;99.00;;;;;;5074459;28;20452;-75
2021/03/06 05:55:24;;;;;;;7.93;6.50;;;9.10;97.70;;;;;;5073460;28;20060;-75
2021/03/06 05:57:51;;;;;;;8.90;5.43;;;9.70;98.20;;;;;;5073909;28;20544;-78
2021/03/06 06:00:17;;;;;;;12.88;6.85;;;10.60;99.30;;;;;;5073313;28;20078;-76
2021/03/06 06:02:43;;;;;;;8.73;6.15;;;11.60;98.70;;;;;;5073369;28;20032;-74
2021/03/06 06:05:09;;;;;;;9.27;5.53;;;12.60;97.40;;;;;;5073475;28;20029;-74
2021/03/06 06:07:36;;;;;;;6.72;5.00;;;13.40;95.00;;;;;;5072288;28;20787;-77
2021/03/06 06:10:03;;;;;;;7.93;4.50;;;14.10;92.00;;;;;;5073269;28;20036;-78
2021/03/06 06:12:28;;;;;;;6.15;3.70;;;14.50;89.90;;;;;;5072955;28;20036;-77
2021/03/06 06:14:54;;;;;;;6.95;4.78;;;15.10;88.20;;;;;;5072735;28;20154;-77
2021/03/06 06:17:22;;;;;;;10.75;6.72;;;15.60;86.10;;;;;;5072999;28;20366;-78
2021/03/06 06:19:48;;;;;;;6.95;4.68;;;16.10;82.10;;;;;;5071691;28;20024;-74
2021/03/06 06:22:27;;;;;;;6.25;4.82;;;16.40;79.10;;;;;;5073474;28;20089;-76
2021/03/06 06:24:53;;;;;;;6.53;4.97;;;16.50;76.20;;;;;;5072068;28;20024;-76
2021/03/06 06:27:31;;;;;;;5.60;3.80;;;16.40;73.30;;;;;;5072665;28;20028;-75
2021/03/06 06:30:00;;;;;;;4.88;3.10;;;15.80;69.70;;;;;;5072164;28;20359;-76
2021/03/06 06:32:46;;;;;;;6.75;3.50;;;15.40;69.70;;;;;;5073247;28;20025;-76
2021/03/06 06:35:16;;;;;;;12.93;7.07;;;15.60;70.30;;;;;;5070913;28;20032;-75
2021/03/06 06:38:03;;;;;;;8.93;6.28;;;16.20;69.70;;;;;;5072098;28;20051;-75
2021/03/06 06:40:37;;;;;;;8.50;5.40;;;16.70;68.50;;;;;;5073295;28;20028;-74
2021/03/06 06:43:24;;;;;;;6.32;4.18;;;17.00;65.90;;;;;;5073380;28;20059;-76
2021/03/06 06:45:50;;;;;;;12.32;7.25;;;17.10;64.50;;;;;;5072574;28;20094;-76
2021/03/06 06:48:16;;;;;;;11.57;8.85;;;16.90;62.10;;;;;;5070718;28;20020;-78
2021/03/06 06:50:42;;;;;;;18.15;12.88;;;16.70;60.90;;;;;;5071558;28;20591;-80
2021/03/06 06:53:30;;;;;;;11.55;8.18;;;16.40;60.10;;;;;;5072078;28;20024;-76
2021/03/06 06:55:56;;;;;;;16.25;10.23;;;16.20;59.80;;;;;;5072314;28;20513;-80
2021/03/06 06:58:34;;;;;;;17.65;12.35;;;16.30;59.40;;;;;;5072293;28;20028;-77
2021/03/06 07:01:00;;;;;;;7.65;5.25;;;16.40;59.40;;;;;;5071883;28;20107;-78
2021/03/06 07:03:26;;;;;;;6.15;4.68;;;16.50;58.20;;;;;;5071708;28;20140;-77
2021/03/06 07:05:52;;;;;;;9.05;5.78;;;16.60;57.50;;;;;;5070201;28;20020;-78
2021/03/06 07:08:23;;;;;;;6.10;4.53;;;16.60;56.90;;;;;;5070238;28;20024;-77
2021/03/06 07:10:49;;;;;;;7.05;5.30;;;16.80;56.10;;;;;;5071780;28;20027;-77
2021/03/06 07:13:15;;;;;;;6.30;5.47;;;16.90;55.40;;;;;;5072510;28;20051;-80
2021/03/06 07:15:42;;;;;;;6.25;4.68;;;16.90;55.20;;;;;;5071437;28;20036;-83
2021/03/06 07:18:18;;;;;;;5.05;4.20;;;17.00;54.30;;;;;;5074049;28;20021;-77
2021/03/06 07:20:45;;;;;;;6.20;3.60;;;17.10;53.50;;;;;;5073705;28;20118;-85
2021/03/06 07:23:22;;;;;;;5.75;4.03;;;17.00;53.30;;;;;;5073284;28;20210;-79
2021/03/06 07:25:56;;;;;;;5.63;4.00;;;17.10;52.70;;;;;;5072693;28;20065;-77
2021/03/06 07:28:23;;;;;;;4.90;4.43;;;17.00;51.90;;;;;;5073170;28;20029;-75
2021/03/06 07:30:50;;;;;;;6.10;4.95;;;16.90;51.80;;;;;;5072530;28;20037;-78
2021/03/06 07:33:18;;;;;;;6.32;4.63;;;16.80;51.20;;;;;;5072601;28;20029;-76
2021/03/06 07:35:46;;;;;;;9.15;4.93;;;16.60;50.10;;;;;;5071574;28;20021;-77
2021/03/06 07:38:16;;;;;;;9.93;7.03;;;16.40;50.20;;;;;;5072193;28;20576;-76
2021/03/06 07:40:55;;;;;;;9.20;6.82;;;16.40;50.00;;;;;;5072844;28;20033;-79
2021/03/06 07:43:30;;;;;;;18.88;12.18;;;16.30;49.60;;;;;;5073184;28;20455;-78
2021/03/06 07:46:00;;;;;;;28.73;21.38;;;16.20;48.90;;;;;;5072000;28;20035;-76
2021/03/06 07:48:28;;;;;;;16.83;10.43;;;16.00;48.40;;;;;;5070448;28;20058;-77
2021/03/06 07:50:55;;;;;;;8.38;6.18;;;15.70;48.30;;;;;;5071772;28;20379;-77
2021/03/06 07:53:22;;;;;;;5.13;3.97;;;15.50;47.80;;;;;;5072159;28;20024;-75
2021/03/06 07:55:49;;;;;;;4.90;3.72;;;15.10;47.20;;;;;;5072237;28;20013;-78
2021/03/06 07:58:18;;;;;;;9.43;5.93;;;14.80;47.10;;;;;;5071583;28;20074;-76
2021/03/06 08:00:48;;;;;;;9.82;7.00;;;14.50;47.40;;;;;;5071119;28;20032;-76
2021/03/06 08:03:30;;;;;;;8.10;5.53;;;14.30;47.80;;;;;;5071782;28;20048;-79
2021/03/06 08:06:00;;;;;;;8.02;5.70;;;14.20;47.40;;;;;;5072826;28;20024;-77
2021/03/06 08:08:32;;;;;;;8.10;5.88;;;14.00;47.80;;;;;;5072057;28;20028;-78
2021/03/06 08:11:16;;;;;;;7.55;5.70;;;13.80;47.50;;;;;;5071917;28;20025;-78
2021/03/06 08:13:54;;;;;;;8.23;5.53;;;13.50;47.50;;;;;;5071777;28;20037;-77
2021/03/06 08:16:28;;;;;;;11.85;4.47;;;13.30;48.00;;;;;;5072357;28;20032;-78
2021/03/06 08:18:55;;;;;;;7.15;4.82;;;13.20;48.50;;;;;;5072513;28;20482;-77
2021/03/06 08:21:32;;;;;;;10.43;5.47;;;13.30;48.90;;;;;;5072282;28;20596;-79
2021/03/06 08:24:18;;;;;;;10.93;6.20;;;13.30;48.30;;;;;;5071176;28;20024;-78
2021/03/06 08:27:02;;;;;;;9.68;6.13;;;13.10;48.40;;;;;;5061772;28;20133;-78
2021/03/06 08:29:29;;;;;;;12.18;6.60;;;13.00;48.90;;;;;;5072735;28;20048;-78
2021/03/06 08:32:07;;;;;;;14.30;8.80;;;12.90;49.00;;;;;;5070847;28;20085;-78
2021/03/06 08:34:46;;;;;;;9.13;6.43;;;13.00;49.10;;;;;;5071267;28;20116;-78
2021/03/06 08:37:12;;;;;;;9.68;6.53;;;12.90;48.50;;;;;;5072259;28;20020;-78
2021/03/06 08:39:57;;;;;;;5.32;4.45;;;12.90;49.20;;;;;;5072165;28;20027;-78
2021/03/06 08:42:29;;;;;;;9.50;5.25;;;12.80;48.30;;;;;;5072378;28;20438;-78
2021/03/06 08:44:57;;;;;;;11.43;8.07;;;12.70;48.10;;;;;;5071958;28;20099;-75
2021/03/06 08:47:32;;;;;;;14.18;7.15;;;12.50;48.50;;;;;;5071969;28;20431;-78
2021/03/06 08:50:04;;;;;;;7.97;4.38;;;12.40;48.80;;;;;;5071928;28;20020;-77
2021/03/06 08:52:30;;;;;;;11.68;6.00;;;12.40;49.10;;;;;;5072645;28;20024;-78
2021/03/06 08:54:57;;;;;;;9.45;6.00;;;12.50;49.50;;;;;;5070808;28;20078;-78
2021/03/06 08:57:28;;;;;;;11.48;6.47;;;12.60;49.30;;;;;;5071966;28;20027;-78
2021/03/06 08:59:55;;;;;;;12.30;7.15;;;12.60;48.70;;;;;;5071849;28;20025;-77
2021/03/06 09:02:26;;;;;;;11.45;6.07;;;12.60;49.00;;;;;;5071570;28;20077;-77
2021/03/06 09:05:13;;;;;;;11.07;6.65;;;12.60;48.70;;;;;;5071583;28;20446;-79
2021/03/06 09:07:44;;;;;;;9.25;6.93;;;12.50;48.30;;;;;;5072048;28;20028;-78
2021/03/06 09:10:26;;;;;;;10.07;6.00;;;12.50;48.60;;;;;;5072911;28;20364;-77
2021/03/06 09:12:55;;;;;;;15.75;9.65;;;12.40;48.40;;;;;;5073294;28;20030;-77
2021/03/06 09:15:28;;;;;;;8.00;5.53;;;12.30;48.80;;;;;;5075398;28;20166;-77
2021/03/06 09:17:54;;;;;;;14.10;7.72;;;12.20;48.20;;;;;;5076019;28;20021;-79
2021/03/06 09:20:20;;;;;;;12.05;6.45;;;12.10;48.50;;;;;;5073566;28;20016;-78
2021/03/06 09:22:50;;;;;;;13.73;6.28;;;12.00;48.30;;;;;;5074411;28;20029;-79
2021/03/06 09:25:28;;;;;;;7.65;4.80;;;11.90;48.00;;;;;;5073299;28;20031;-77
2021/03/06 09:27:54;;;;;;;8.18;5.00;;;11.90;47.70;;;;;;5073969;28;20025;-78
2021/03/06 09:30:41;;;;;;;9.85;6.40;;;11.90;48.20;;;;;;5074396;28;20055;-76
2021/03/06 09:33:31;;;;;;;11.77;6.30;;;11.80;47.70;;;;;;5073774;28;20024;-77
2021/03/06 09:36:07;;;;;;;6.20;4.00;;;11.80;47.50;;;;;;5073545;28;20091;-77
2021/03/06 09:38:43;;;;;;;7.05;4.25;;;11.60;47.20;;;;;;5070797;28;20016;-76
2021/03/06 09:41:09;;;;;;;7.32;5.38;;;11.40;46.90;;;;;;5071952;28;20028;-77
2021/03/06 09:43:37;;;;;;;8.07;5.43;;;11.20;47.20;;;;;;5071908;28;20020;-76
2021/03/06 09:46:27;;;;;;;6.88;5.30;;;11.10;47.00;;;;;;5072448;28;20016;-76
2021/03/06 09:49:11;;;;;;;8.50;4.90;;;11.00;46.60;;;;;;5071722;28;20012;-77
2021/03/06 09:51:54;;;;;;;11.88;4.75;;;11.00;47.40;;;;;;5069974;28;20085;-77
2021/03/06 09:54:25;;;;;;;9.63;3.83;;;11.00;46.80;;;;;;5070933;28;20027;-76
2021/03/06 09:56:51;;;;;;;9.27;4.35;;;11.00;47.10;;;;;;5072211;28;20120;-75
2021/03/06 09:59:18;;;;;;;4.95;3.00;;;11.00;47.40;;;;;;5074263;28;20017;-80
2021/03/06 10:01:44;;;;;;;5.18;3.50;;;11.00;46.90;;;;;;5074267;28;20779;-76
2021/03/06 10:04:18;;;;;;;28.13;6.25;;;10.80;45.90;;;;;;5073169;28;20060;-78
2021/03/06 10:06:48;;;;;;;22.88;8.32;;;10.60;46.10;;;;;;5072737;28;20056;-77
2021/03/06 10:09:15;;;;;;;10.48;4.40;;;10.70;46.90;;;;;;5072926;28;20024;-77
2021/03/06 10:11:46;;;;;;;11.55;5.72;;;10.70;46.60;;;;;;5072880;28;20040;-76
2021/03/06 10:14:17;;;;;;;13.85;6.15;;;10.60;46.00;;;;;;5073932;28;20028;-79
2021/03/06 10:16:57;;;;;;;10.30;4.30;;;10.50;45.50;;;;;;5074853;28;20379;-76
2021/03/06 10:19:25;;;;;;;6.70;4.13;;;10.30;45.20;;;;;;5073600;28;20020;-78
2021/03/06 10:22:02;;;;;;;8.50;5.28;;;10.20;45.80;;;;;;5071795;28;20489;-77
2021/03/06 10:24:28;;;;;;;5.55;3.60;;;10.10;45.40;;;;;;5073037;28;20020;-77
2021/03/06 10:26:59;;;;;;;5.10;3.90;;;10.10;46.10;;;;;;5072831;28;20025;-77
2021/03/06 10:29:26;;;;;;;24.45;5.15;;;10.10;46.10;;;;;;5072657;28;20024;-80
2021/03/06 10:32:05;;;;;;;9.77;3.75;;;10.20;46.50;;;;;;5072530;28;20031;-77
2021/03/06 10:34:37;;;;;;;11.05;3.92;;;10.40;47.00;;;;;;5074316;28;20023;-81
2021/03/06 10:37:13;;;;;;;13.60;5.75;;;10.60;46.40;;;;;;5073946;28;20056;-79
2021/03/06 10:39:59;;;;;;;8.05;5.80;;;10.60;46.40;;;;;;5073227;28;20083;-80
2021/03/06 10:42:50;;;;;;;12.40;6.20;;;10.60;46.00;;;;;;5074326;28;20047;-82
2021/03/06 10:45:27;;;;;;;5.05;3.80;;;10.60;46.00;;;;;;5075381;28;20021;-80
2021/03/06 10:48:03;;;;;;;15.15;5.47;;;10.50;45.50;;;;;;5076793;28;20024;-81
2021/03/06 10:50:39;;;;;;;11.65;5.70;;;10.40;45.80;;;;;;5074093;28;20035;-82
2021/03/06 10:53:13;;;;;;;10.30;4.93;;;10.40;45.90;;;;;;5072669;28;20461;-80
2021/03/06 10:55:39;;;;;;;17.95;6.63;;;10.40;45.90;;;;;;5074387;28;20089;-81
2021/03/06 10:58:04;;;;;;;17.23;6.63;;;10.40;46.10;;;;;;5073921;28;20067;-79
2021/03/06 11:00:31;;;;;;;11.88;5.05;;;10.40;45.80;;;;;;5073374;28;20055;-87
2021/03/06 11:03:01;;;;;;;26.52;6.53;;;10.40;45.50;;;;;;5076475;28;20044;-88
2021/03/06 11:05:29;;;;;;;17.52;6.25;;;10.40;45.10;;;;;;5077618;28;20036;-87
2021/03/06 11:07:57;;;;;;;19.35;4.80;;;10.30;44.80;;;;;;5077042;28;20041;-90
2021/03/06 11:10:27;;;;;;;23.67;11.30;;;10.30;44.50;;;;;;5079107;28;20301;-90
2021/03/06 11:12:55;;;;;;;26.60;12.68;;;10.20;43.90;;;;;;5076438;28;20029;-88
2021/03/06 11:15:24;;;;;;;21.98;9.85;;;10.00;43.50;;;;;;5078565;28;20150;-89
2021/03/06 11:18:00;;;;;;;9.65;4.45;;;9.80;43.70;;;;;;5087241;28;20028;-89
2021/03/06 11:20:28;;;;;;;10.73;4.55;;;9.70;43.50;;;;;;5074484;28;20039;-88
2021/03/06 11:22:55;;;;;;;17.95;4.25;;;9.60;43.80;;;;;;5058118;28;20166;-89
2021/03/06 11:25:22;;;;;;;9.20;3.97;;;9.60;43.80;;;;;;5058109;28;20033;-89
2021/03/06 11:27:51;;;;;;;9.18;4.47;;;9.60;43.60;;;;;;5073385;28;20024;-88
2021/03/06 11:30:24;;;;;;;12.25;4.10;;;9.50;43.20;;;;;;5088930;28;20688;-89
2021/03/06 11:32:51;;;;;;;6.20;3.60;;;9.40;43.10;;;;;;5078390;28;20073;-89
2021/03/06 11:35:18;;;;;;;7.78;4.15;;;9.30;42.90;;;;;;5060639;28;20024;-90
2021/03/06 11:37:44;;;;;;;12.02;4.25;;;9.20;42.70;;;;;;5075741;28;20020;-89
2021/03/06 11:40:12;;;;;;;8.68;3.70;;;9.20;42.60;;;;;;5075440;28;20113;-90
2021/03/06 11:42:39;;;;;;;17.90;6.70;;;9.10;42.40;;;;;;5058490;28;20021;-89
2021/03/06 11:45:07;;;;;;;7.82;4.00;;;9.00;42.30;;;;;;5075513;28;20038;-89
2021/03/06 11:47:33;;;;;;;13.27;5.20;;;8.90;42.20;;;;;;5075210;28;20021;-90
2021/03/06 11:49:59;;;;;;;12.15;5.85;;;8.90;42.10;;;;;;5074170;28;20086;-79
2021/03/06 11:52:25;;;;;;;10.05;5.00;;;8.80;41.80;;;;;;5071340;28;20076;-78
2021/03/06 11:54:51;;;;;;;6.43;4.50;;;8.70;41.90;;;;;;5073020;28;20024;-81
2021/03/06 11:57:16;;;;;;;15.82;5.20;;;8.60;41.90;;;;;;5071074;28;20016;-80
2021/03/06 11:59:42;;;;;;;6.93;4.30;;;8.60;42.00;;;;;;5071579;28;20077;-79
2021/03/06 12:02:08;;;;;;;7.03;4.13;;;8.50;41.80;;;;;;5072239;28;20774;-78
2021/03/06 12:04:34;;;;;;;7.82;3.80;;;8.50;41.70;;;;;;5073039;28;20048;-80
2021/03/06 12:06:59;;;;;;;14.60;5.45;;;8.40;41.40;;;;;;5072936;28;20021;-81
2021/03/06 12:09:25;;;;;;;14.85;7.55;;;8.30;41.40;;;;;;5072336;28;20036;-80
2021/03/06 12:11:51;;;;;;;5.80;3.50;;;8.20;41.30;;;;;;5073327;28;20081;-79
2021/03/06 12:14:17;;;;;;;8.20;4.47;;;8.10;41.20;;;;;;5073039;28;20425;-80
2021/03/06 12:16:43;;;;;;;10.43;5.65;;;8.00;41.10;;;;;;5071883;28;20550;-81
2021/03/06 12:19:08;;;;;;;9.85;4.32;;;8.00;41.40;;;;;;5072620;28;20029;-77
2021/03/06 12:21:34;;;;;;;9.05;5.20;;;7.90;41.50;;;;;;5071024;28;20103;-79
2021/03/06 12:24:00;;;;;;;11.25;4.10;;;7.80;41.60;;;;;;5071728;28;20070;-83
2021/03/06 12:26:26;;;;;;;14.75;3.80;;;7.80;41.80;;;;;;5071720;28;20024;-82
2021/03/06 12:28:52;;;;;;;10.88;6.07;;;7.70;41.90;;;;;;5071666;28;20024;-83
2021/03/06 12:31:18;;;;;;;13.98;3.70;;;7.70;41.80;;;;;;5073258;28;20466;-86
2021/03/06 12:33:44;;;;;;;11.60;4.10;;;7.70;41.60;;;;;;5072871;28;20032;-83
2021/03/06 12:36:10;;;;;;;5.30;3.63;;;7.70;41.60;;;;;;5072052;28;20029;-84
2021/03/06 12:38:36;;;;;;;7.15;3.28;;;7.60;41.70;;;;;;5072522;28;20081;-85
2021/03/06 12:41:01;;;;;;;6.43;3.85;;;7.60;41.80;;;;;;5073324;28;20097;-81
2021/03/06 12:43:28;;;;;;;15.30;3.15;;;7.60;41.80;;;;;;5072786;28;20035;-81
2021/03/06 12:45:54;;;;;;;15.63;3.88;;;7.50;41.60;;;;;;5071803;28;20360;-81
2021/03/06 12:48:20;;;;;;;22.88;3.83;;;7.50;41.30;;;;;;5075891;28;20060;-80
2021/03/06 12:50:46;;;;;;;10.80;2.45;;;7.40;41.10;;;;;;5076544;28;20086;-80
2021/03/06 12:53:11;;;;;;;15.48;3.45;;;7.40;40.90;;;;;;5076555;28;20036;-81
2021/03/06 12:55:37;;;;;;;17.52;5.63;;;7.30;40.80;;;;;;5076380;28;20021;-81